Jack Guidry — WDF2422 — position and weather

sailwx.info

Track history (hours):
 
Tides and Currents Weather Stations Pressure Air Temp Water Temp Dewpoint Dewpoint Depression Visibility Wind Speed Wind Dir Waves Ship Positions

Jack Guidry

Owner: Enterprise Marine Services, LLC, San Antonio, TX. More information available from US FCC via Universal Licensing System and Coast Guard Vessel Documentation Center.

Last reported at 2016-May-28 13:30 UTC. Time now 2016-May-28 22:06 UTC.
Position N 29°29' W 094°52'.

Length 22 m; draft 3 m.

Type: Other ship. MMSI: 367003430.

Date/timePositionNaut miles runAvg speedWind from/ knotsBaromVisibWave heightAir tempDewpointWater temp
2016-May-28 13:30N 29°29' W 094°52'8 7.5
2016-May-28 12:25N 29°36' W 094°57'7 7.5
2016-May-28 11:31N 29°42' W 095°00'7 3.3
2016-May-28 09:33N 29°47' W 095°05'0 0.0
2016-May-28 08:33N 29°47' W 095°05'0 0.0
2016-May-28 07:33N 29°47' W 095°05'0 0.0
2016-May-28 06:33N 29°47' W 095°05'0 0.0
2016-May-28 05:33N 29°47' W 095°05'0 0.0
2016-May-28 04:34N 29°47' W 095°05'0 0.0
2016-May-28 03:33N 29°47' W 095°05'0 0.0
2016-May-28 02:33N 29°47' W 095°05'0 0.0
2016-May-28 01:33N 29°47' W 095°05'0 0.0
2016-May-28 00:33N 29°47' W 095°05'0 0.0
2016-May-27 23:33N 29°47' W 095°05'0 0.0
2016-May-27 22:33N 29°47' W 095°05'0 0.0
2016-May-27 21:33N 29°47' W 095°05'0 0.0
2016-May-27 20:33N 29°47' W 095°05'0 0.0
2016-May-27 19:33N 29°47' W 095°05'0 0.0
2016-May-27 18:28N 29°47' W 095°05'0 0.0
2016-May-27 17:33N 29°47' W 095°05'0 0.0
2016-May-27 16:33N 29°47' W 095°05'0 0.0
2016-May-27 15:33N 29°47' W 095°05'0 0.0
2016-May-27 14:33N 29°47' W 095°05'0 0.0
2016-May-27 12:32N 29°47' W 095°05'0 0.0
2016-May-27 11:32N 29°47' W 095°05'0 0.0
2016-May-27 01:11N 29°47' W 095°05'4 0.2
2016-May-25 21:16N 29°44' W 095°09'3 0.1
2016-May-24 15:03N 29°46' W 095°05'2 0.4
2016-May-24 11:12N 29°45' W 095°04'3 5.1
2016-May-24 10:32N 29°42' W 095°01'6 6.3
2016-May-24 09:33N 29°37' W 094°57'69 4.3
2016-May-23 17:32N 30°03' W 093°44'5 5.1
2016-May-23 16:33N 30°04' W 093°38'4 3.9
2016-May-23 15:33N 30°04' W 093°33'5 4.6
2016-May-23 14:34N 30°04' W 093°28'5 4.9
2016-May-23 13:33N 30°04' W 093°22'4 3.6
2016-May-23 12:33N 30°06' W 093°20'2 1.8
2016-May-23 11:33N 30°08' W 093°19'0 0.0
2016-May-23 10:33N 30°08' W 093°19'0 0.0
2016-May-23 09:33N 30°08' W 093°19'0 0.0
2016-May-23 08:33N 30°08' W 093°19'0 0.0
2016-May-23 07:34N 30°08' W 093°19'0 0.0
2016-May-23 06:33N 30°08' W 093°19'0 0.0
2016-May-23 05:33N 30°08' W 093°19'0 0.0
2016-May-23 04:33N 30°08' W 093°19'0 0.0
2016-May-23 03:33N 30°08' W 093°19'0 0.0
2016-May-23 02:33N 30°08' W 093°19'0 0.0
2016-May-23 01:34N 30°08' W 093°19'0 0.0
2016-May-23 00:33N 30°08' W 093°19'0 0.0
2016-May-22 23:33N 30°08' W 093°19'0 0.0
2016-May-22 22:33N 30°08' W 093°19'0 0.0
2016-May-22 21:34N 30°08' W 093°19'0 0.0
2016-May-22 20:34N 30°08' W 093°19'0 0.0
2016-May-22 19:33N 30°08' W 093°19'0 0.0
2016-May-22 18:33N 30°08' W 093°19'0 0.0
2016-May-22 17:34N 30°08' W 093°19'0 0.0
2016-May-22 16:34N 30°08' W 093°19'0 0.0
2016-May-22 15:34N 30°08' W 093°19'0 0.0
2016-May-22 14:34N 30°08' W 093°19'0 0.0
2016-May-22 13:33N 30°08' W 093°19'0 0.0
2016-May-22 12:33N 30°08' W 093°19'4 4.1
2016-May-22 11:33N 30°04' W 093°21'2 2.2
2016-May-22 10:33N 30°04' W 093°23'0 0.0
2016-May-22 09:34N 30°04' W 093°23'3 3.5
2016-May-22 08:33N 30°04' W 093°27'4 4.2
2016-May-22 07:33N 30°04' W 093°32'8 3.8
2016-May-22 05:32N 30°04' W 093°41'71 4.1
2016-May-21 12:08N 29°33' W 094°55'4 6.8
2016-May-21 11:33N 29°36' W 094°57'7 6.1
2016-May-21 10:29N 29°42' W 095°01'6 0.3
2016-May-20 12:28N 29°44' W 095°07'5 0.7
2016-May-20 05:33N 29°44' W 095°02'6 5.4
2016-May-20 04:22N 29°38' W 094°58'5 6.0
2016-May-20 03:33N 29°34' W 094°55'58 3.6
2016-May-19 11:24N 29°55' W 093°53'5 4.8
2016-May-19 10:24N 29°59' W 093°49'5 4.7
2016-May-19 09:14N 30°02' W 093°44'3 4.6
2016-May-19 08:33N 30°04' W 093°41'4 4.3
2016-May-19 07:33N 30°04' W 093°36'4 4.2
2016-May-19 06:34N 30°04' W 093°32'4 4.1
2016-May-19 05:34N 30°04' W 093°27'4 4.0
2016-May-19 04:34N 30°04' W 093°22'3 2.9
2016-May-19 03:33N 30°05' W 093°20'3 2.7
2016-May-19 02:34N 30°08' W 093°20'0 0.2
2016-May-19 01:33N 30°08' W 093°19'0 0.0
2016-May-19 00:33N 30°08' W 093°19'0 0.0
2016-May-18 23:33N 30°08' W 093°19'0 0.0
2016-May-18 22:34N 30°08' W 093°19'0 0.0
2016-May-18 21:33N 30°08' W 093°19'0 0.0
2016-May-18 20:33N 30°08' W 093°19'0 0.0
2016-May-18 19:34N 30°08' W 093°19'0 0.0
2016-May-18 18:33N 30°08' W 093°19'0 0.0
2016-May-18 17:33N 30°08' W 093°19'0 0.0
2016-May-18 16:34N 30°08' W 093°19'0 0.0
2016-May-18 15:33N 30°08' W 093°19'0 0.0
2016-May-18 14:33N 30°08' W 093°19'0 0.0
2016-May-18 13:34N 30°08' W 093°19'  
Track history (hours):
 
Tides and Currents Weather Stations Pressure Air Temp Water Temp Dewpoint Dewpoint Depression Visibility Wind Speed Wind Dir Waves Ship Positions

Jack Guidry

Owner: Enterprise Marine Services, LLC, San Antonio, TX. More information available from US FCC via Universal Licensing System and Coast Guard Vessel Documentation Center.

Last reported at 2016-May-28 13:30 UTC. Time now 2016-May-28 22:06 UTC.
Position N 29°29' W 094°52'.

Length 22 m; draft 3 m.

Type: Other ship. MMSI: 367003430.

Date/timePositionNaut miles runAvg speedWind from/ knotsBaromVisibWave heightAir tempDewpointWater temp
2016-May-28 13:30N 29°29' W 094°52'8 7.5
2016-May-28 12:25N 29°36' W 094°57'7 7.5
2016-May-28 11:31N 29°42' W 095°00'7 3.3
2016-May-28 09:33N 29°47' W 095°05'0 0.0
2016-May-28 08:33N 29°47' W 095°05'0 0.0
2016-May-28 07:33N 29°47' W 095°05'0 0.0
2016-May-28 06:33N 29°47' W 095°05'0 0.0
2016-May-28 05:33N 29°47' W 095°05'0 0.0
2016-May-28 04:34N 29°47' W 095°05'0 0.0
2016-May-28 03:33N 29°47' W 095°05'0 0.0
2016-May-28 02:33N 29°47' W 095°05'0 0.0
2016-May-28 01:33N 29°47' W 095°05'0 0.0
2016-May-28 00:33N 29°47' W 095°05'0 0.0
2016-May-27 23:33N 29°47' W 095°05'0 0.0
2016-May-27 22:33N 29°47' W 095°05'0 0.0
2016-May-27 21:33N 29°47' W 095°05'0 0.0
2016-May-27 20:33N 29°47' W 095°05'0 0.0
2016-May-27 19:33N 29°47' W 095°05'0 0.0
2016-May-27 18:28N 29°47' W 095°05'0 0.0
2016-May-27 17:33N 29°47' W 095°05'0 0.0
2016-May-27 16:33N 29°47' W 095°05'0 0.0
2016-May-27 15:33N 29°47' W 095°05'0 0.0
2016-May-27 14:33N 29°47' W 095°05'0 0.0
2016-May-27 12:32N 29°47' W 095°05'0 0.0
2016-May-27 11:32N 29°47' W 095°05'0 0.0
2016-May-27 01:11N 29°47' W 095°05'4 0.2
2016-May-25 21:16N 29°44' W 095°09'3 0.1
2016-May-24 15:03N 29°46' W 095°05'2 0.4
2016-May-24 11:12N 29°45' W 095°04'3 5.1
2016-May-24 10:32N 29°42' W 095°01'6 6.3
2016-May-24 09:33N 29°37' W 094°57'69 4.3
2016-May-23 17:32N 30°03' W 093°44'5 5.1
2016-May-23 16:33N 30°04' W 093°38'4 3.9
2016-May-23 15:33N 30°04' W 093°33'5 4.6
2016-May-23 14:34N 30°04' W 093°28'5 4.9
2016-May-23 13:33N 30°04' W 093°22'4 3.6
2016-May-23 12:33N 30°06' W 093°20'2 1.8
2016-May-23 11:33N 30°08' W 093°19'0 0.0
2016-May-23 10:33N 30°08' W 093°19'0 0.0
2016-May-23 09:33N 30°08' W 093°19'0 0.0
2016-May-23 08:33N 30°08' W 093°19'0 0.0
2016-May-23 07:34N 30°08' W 093°19'0 0.0
2016-May-23 06:33N 30°08' W 093°19'0 0.0
2016-May-23 05:33N 30°08' W 093°19'0 0.0
2016-May-23 04:33N 30°08' W 093°19'0 0.0
2016-May-23 03:33N 30°08' W 093°19'0 0.0
2016-May-23 02:33N 30°08' W 093°19'0 0.0
2016-May-23 01:34N 30°08' W 093°19'0 0.0
2016-May-23 00:33N 30°08' W 093°19'0 0.0
2016-May-22 23:33N 30°08' W 093°19'0 0.0
2016-May-22 22:33N 30°08' W 093°19'0 0.0
2016-May-22 21:34N 30°08' W 093°19'0 0.0
2016-May-22 20:34N 30°08' W 093°19'0 0.0
2016-May-22 19:33N 30°08' W 093°19'0 0.0
2016-May-22 18:33N 30°08' W 093°19'0 0.0
2016-May-22 17:34N 30°08' W 093°19'0 0.0
2016-May-22 16:34N 30°08' W 093°19'0 0.0
2016-May-22 15:34N 30°08' W 093°19'0 0.0
2016-May-22 14:34N 30°08' W 093°19'0 0.0
2016-May-22 13:33N 30°08' W 093°19'0 0.0
2016-May-22 12:33N 30°08' W 093°19'4 4.1
2016-May-22 11:33N 30°04' W 093°21'2 2.2
2016-May-22 10:33N 30°04' W 093°23'0 0.0
2016-May-22 09:34N 30°04' W 093°23'3 3.5
2016-May-22 08:33N 30°04' W 093°27'4 4.2
2016-May-22 07:33N 30°04' W 093°32'8 3.8
2016-May-22 05:32N 30°04' W 093°41'71 4.1
2016-May-21 12:08N 29°33' W 094°55'4 6.8
2016-May-21 11:33N 29°36' W 094°57'7 6.1
2016-May-21 10:29N 29°42' W 095°01'6 0.3
2016-May-20 12:28N 29°44' W 095°07'5 0.7
2016-May-20 05:33N 29°44' W 095°02'6 5.4
2016-May-20 04:22N 29°38' W 094°58'5 6.0
2016-May-20 03:33N 29°34' W 094°55'58 3.6
2016-May-19 11:24N 29°55' W 093°53'5 4.8
2016-May-19 10:24N 29°59' W 093°49'5 4.7
2016-May-19 09:14N 30°02' W 093°44'3 4.6
2016-May-19 08:33N 30°04' W 093°41'4 4.3
2016-May-19 07:33N 30°04' W 093°36'4 4.2
2016-May-19 06:34N 30°04' W 093°32'4 4.1
2016-May-19 05:34N 30°04' W 093°27'4 4.0
2016-May-19 04:34N 30°04' W 093°22'3 2.9
2016-May-19 03:33N 30°05' W 093°20'3 2.7
2016-May-19 02:34N 30°08' W 093°20'0 0.2
2016-May-19 01:33N 30°08' W 093°19'0 0.0
2016-May-19 00:33N 30°08' W 093°19'0 0.0
2016-May-18 23:33N 30°08' W 093°19'0 0.0
2016-May-18 22:34N 30°08' W 093°19'0 0.0
2016-May-18 21:33N 30°08' W 093°19'0 0.0
2016-May-18 20:33N 30°08' W 093°19'0 0.0
2016-May-18 19:34N 30°08' W 093°19'0 0.0
2016-May-18 18:33N 30°08' W 093°19'0 0.0
2016-May-18 17:33N 30°08' W 093°19'0 0.0
2016-May-18 16:34N 30°08' W 093°19'0 0.0
2016-May-18 15:33N 30°08' W 093°19'0 0.0
2016-May-18 14:33N 30°08' W 093°19'0 0.0
2016-May-18 13:34N 30°08' W 093°19'  

Dump ship's entire track history